sensor_id;sensor_type;location;lat;lon;timestamp;temperature;humidity
42913;DHT22;50720;54.324;18.558;2022-10-16T00:00:18;13.30;99.90
42913;DHT22;50720;54.324;18.558;2022-10-16T00:03:09;13.40;99.90
42913;DHT22;50720;54.324;18.558;2022-10-16T00:05:40;13.50;99.90
42913;DHT22;50720;54.324;18.558;2022-10-16T00:08:11;13.40;99.90
42913;DHT22;50720;54.324;18.558;2022-10-16T00:10:41;13.50;99.90
42913;DHT22;50720;54.324;18.558;2022-10-16T00:13:11;13.60;99.90
42913;DHT22;50720;54.324;18.558;2022-10-16T00:15:41;13.60;99.90
42913;DHT22;50720;54.324;18.558;2022-10-16T00:18:14;13.60;99.90
42913;DHT22;50720;54.324;18.558;2022-10-16T00:20:44;13.70;99.90
42913;DHT22;50720;54.324;18.558;2022-10-16T00:23:13;13.60;99.90
42913;DHT22;50720;54.324;18.558;2022-10-16T00:25:43;13.70;99.90
42913;DHT22;50720;54.324;18.558;2022-10-16T00:28:12;13.70;99.90
42913;DHT22;50720;54.324;18.558;2022-10-16T00:30:42;13.70;99.90
42913;DHT22;50720;54.324;18.558;2022-10-16T00:33:13;13.70;99.90
42913;DHT22;50720;54.324;18.558;2022-10-16T00:35:43;13.70;99.90
42913;DHT22;50720;54.324;18.558;2022-10-16T00:38:12;13.70;99.90
42913;DHT22;50720;54.324;18.558;2022-10-16T00:40:42;13.70;99.90
42913;DHT22;50720;54.324;18.558;2022-10-16T00:43:33;13.70;99.90
42913;DHT22;50720;54.324;18.558;2022-10-16T00:46:07;13.70;99.90
42913;DHT22;50720;54.324;18.558;2022-10-16T00:48:40;13.70;99.90
42913;DHT22;50720;54.324;18.558;2022-10-16T00:51:10;13.70;99.90
42913;DHT22;50720;54.324;18.558;2022-10-16T00:53:40;13.80;99.90
42913;DHT22;50720;54.324;18.558;2022-10-16T00:56:09;13.80;99.90
42913;DHT22;50720;54.324;18.558;2022-10-16T00:58:39;13.90;99.90
42913;DHT22;50720;54.324;18.558;2022-10-16T01:01:09;13.90;99.90
42913;DHT22;50720;54.324;18.558;2022-10-16T01:03:40;13.90;99.90
42913;DHT22;50720;54.324;18.558;2022-10-16T01:06:22;13.90;99.90
42913;DHT22;50720;54.324;18.558;2022-10-16T01:09:05;13.90;99.90
42913;DHT22;50720;54.324;18.558;2022-10-16T01:11:44;13.90;99.90
42913;DHT22;50720;54.324;18.558;2022-10-16T01:14:23;13.90;99.90
42913;DHT22;50720;54.324;18.558;2022-10-16T01:16:58;13.90;99.90
42913;DHT22;50720;54.324;18.558;2022-10-16T01:19:58;13.90;99.90
42913;DHT22;50720;54.324;18.558;2022-10-16T01:22:39;14.00;99.90
42913;DHT22;50720;54.324;18.558;2022-10-16T01:25:16;14.00;99.90
42913;DHT22;50720;54.324;18.558;2022-10-16T01:27:50;13.90;99.90
42913;DHT22;50720;54.324;18.558;2022-10-16T01:30:23;14.00;99.90
42913;DHT22;50720;54.324;18.558;2022-10-16T01:32:58;14.00;99.90
42913;DHT22;50720;54.324;18.558;2022-10-16T01:35:31;14.00;99.90
42913;DHT22;50720;54.324;18.558;2022-10-16T01:38:04;14.10;99.90
42913;DHT22;50720;54.324;18.558;2022-10-16T01:40:39;14.10;99.90
42913;DHT22;50720;54.324;18.558;2022-10-16T01:43:14;14.10;99.90
42913;DHT22;50720;54.324;18.558;2022-10-16T01:45:44;14.10;99.90
42913;DHT22;50720;54.324;18.558;2022-10-16T01:48:18;14.20;99.90
42913;DHT22;50720;54.324;18.558;2022-10-16T01:50:54;14.20;99.90
42913;DHT22;50720;54.324;18.558;2022-10-16T01:53:25;14.20;99.90
42913;DHT22;50720;54.324;18.558;2022-10-16T01:55:56;14.20;99.90
42913;DHT22;50720;54.324;18.558;2022-10-16T01:58:29;14.20;99.90
42913;DHT22;50720;54.324;18.558;2022-10-16T02:01:03;14.30;99.90
42913;DHT22;50720;54.324;18.558;2022-10-16T02:03:34;14.30;99.90
42913;DHT22;50720;54.324;18.558;2022-10-16T02:06:06;14.30;99.90
42913;DHT22;50720;54.324;18.558;2022-10-16T02:08:35;14.40;99.90
42913;DHT22;50720;54.324;18.558;2022-10-16T02:11:06;14.30;99.90
42913;DHT22;50720;54.324;18.558;2022-10-16T02:13:41;14.30;99.90
42913;DHT22;50720;54.324;18.558;2022-10-16T02:16:13;14.20;99.90
42913;DHT22;50720;54.324;18.558;2022-10-16T02:18:43;14.30;99.90
42913;DHT22;50720;54.324;18.558;2022-10-16T02:21:16;14.20;99.90
42913;DHT22;50720;54.324;18.558;2022-10-16T02:23:53;14.10;99.90
42913;DHT22;50720;54.324;18.558;2022-10-16T02:26:30;14.00;99.90
42913;DHT22;50720;54.324;18.558;2022-10-16T02:29:06;13.90;99.90
42913;DHT22;50720;54.324;18.558;2022-10-16T02:31:41;14.00;99.90
42913;DHT22;50720;54.324;18.558;2022-10-16T02:34:15;13.90;99.90
42913;DHT22;50720;54.324;18.558;2022-10-16T02:36:45;13.80;99.90
42913;DHT22;50720;54.324;18.558;2022-10-16T02:39:18;13.80;99.90
42913;DHT22;50720;54.324;18.558;2022-10-16T02:41:48;13.80;99.90
42913;DHT22;50720;54.324;18.558;2022-10-16T02:44:20;13.80;99.90
42913;DHT22;50720;54.324;18.558;2022-10-16T02:46:48;13.80;99.90
42913;DHT22;50720;54.324;18.558;2022-10-16T02:49:18;13.70;99.90
42913;DHT22;50720;54.324;18.558;2022-10-16T02:51:47;13.80;99.90
42913;DHT22;50720;54.324;18.558;2022-10-16T02:54:17;13.70;99.90
42913;DHT22;50720;54.324;18.558;2022-10-16T02:56:47;13.70;99.90
42913;DHT22;50720;54.324;18.558;2022-10-16T02:59:18;13.70;99.90
42913;DHT22;50720;54.324;18.558;2022-10-16T03:01:47;13.60;99.90
42913;DHT22;50720;54.324;18.558;2022-10-16T03:04:17;13.60;99.90
42913;DHT22;50720;54.324;18.558;2022-10-16T03:06:46;13.70;99.90
42913;DHT22;50720;54.324;18.558;2022-10-16T03:09:16;13.70;99.90
42913;DHT22;50720;54.324;18.558;2022-10-16T03:11:46;13.60;99.90
42913;DHT22;50720;54.324;18.558;2022-10-16T03:14:16;13.60;99.90
42913;DHT22;50720;54.324;18.558;2022-10-16T03:16:47;13.50;99.90
42913;DHT22;50720;54.324;18.558;2022-10-16T03:19:17;13.50;99.90
42913;DHT22;50720;54.324;18.558;2022-10-16T03:21:47;13.50;99.90
42913;DHT22;50720;54.324;18.558;2022-10-16T03:24:16;13.50;99.90
42913;DHT22;50720;54.324;18.558;2022-10-16T03:26:46;13.50;99.90
42913;DHT22;50720;54.324;18.558;2022-10-16T03:29:16;13.50;99.90
42913;DHT22;50720;54.324;18.558;2022-10-16T03:31:47;13.50;99.90
42913;DHT22;50720;54.324;18.558;2022-10-16T03:34:17;13.50;99.90
42913;DHT22;50720;54.324;18.558;2022-10-16T03:36:47;13.50;99.90
42913;DHT22;50720;54.324;18.558;2022-10-16T03:39:17;13.40;99.90
42913;DHT22;50720;54.324;18.558;2022-10-16T03:41:46;13.40;99.90
42913;DHT22;50720;54.324;18.558;2022-10-16T03:44:16;13.40;99.90
42913;DHT22;50720;54.324;18.558;2022-10-16T03:46:47;13.40;99.90
42913;DHT22;50720;54.324;18.558;2022-10-16T03:49:17;13.50;99.90
42913;DHT22;50720;54.324;18.558;2022-10-16T03:51:46;13.50;99.90
42913;DHT22;50720;54.324;18.558;2022-10-16T03:54:16;13.50;99.90
42913;DHT22;50720;54.324;18.558;2022-10-16T03:56:45;13.40;99.90
42913;DHT22;50720;54.324;18.558;2022-10-16T03:59:15;13.40;99.90
42913;DHT22;50720;54.324;18.558;2022-10-16T04:01:46;13.40;99.90
42913;DHT22;50720;54.324;18.558;2022-10-16T04:04:16;13.50;99.90
42913;DHT22;50720;54.324;18.558;2022-10-16T04:06:45;13.50;99.90
42913;DHT22;50720;54.324;18.558;2022-10-16T04:09:15;13.50;99.90
42913;DHT22;50720;54.324;18.558;2022-10-16T04:11:45;13.40;99.90
42913;DHT22;50720;54.324;18.558;2022-10-16T04:14:14;13.50;99.90
42913;DHT22;50720;54.324;18.558;2022-10-16T04:16:44;13.50;99.90
42913;DHT22;50720;54.324;18.558;2022-10-16T04:19:15;13.60;99.90
42913;DHT22;50720;54.324;18.558;2022-10-16T04:21:44;13.60;99.90
42913;DHT22;50720;54.324;18.558;2022-10-16T04:24:14;13.60;99.90
42913;DHT22;50720;54.324;18.558;2022-10-16T04:26:43;13.50;99.90
42913;DHT22;50720;54.324;18.558;2022-10-16T04:29:13;13.60;99.90
42913;DHT22;50720;54.324;18.558;2022-10-16T04:31:43;13.60;99.90
42913;DHT22;50720;54.324;18.558;2022-10-16T04:34:12;13.50;99.90
42913;DHT22;50720;54.324;18.558;2022-10-16T04:36:43;13.50;99.90
42913;DHT22;50720;54.324;18.558;2022-10-16T04:39:13;13.50;99.90
42913;DHT22;50720;54.324;18.558;2022-10-16T04:41:42;13.50;99.90
42913;DHT22;50720;54.324;18.558;2022-10-16T04:44:13;13.50;99.90
42913;DHT22;50720;54.324;18.558;2022-10-16T04:46:42;13.50;99.90
42913;DHT22;50720;54.324;18.558;2022-10-16T04:49:12;13.50;99.90
42913;DHT22;50720;54.324;18.558;2022-10-16T04:51:43;13.50;99.90
42913;DHT22;50720;54.324;18.558;2022-10-16T04:54:13;13.50;99.90
42913;DHT22;50720;54.324;18.558;2022-10-16T04:56:42;13.50;99.90
42913;DHT22;50720;54.324;18.558;2022-10-16T04:59:15;13.50;99.90
42913;DHT22;50720;54.324;18.558;2022-10-16T05:01:45;13.60;99.90
42913;DHT22;50720;54.324;18.558;2022-10-16T05:04:15;13.50;99.90
42913;DHT22;50720;54.324;18.558;2022-10-16T05:06:47;13.60;99.90
42913;DHT22;50720;54.324;18.558;2022-10-16T05:09:17;13.60;99.90
42913;DHT22;50720;54.324;18.558;2022-10-16T05:11:46;13.60;99.90
42913;DHT22;50720;54.324;18.558;2022-10-16T05:14:16;13.70;99.90
42913;DHT22;50720;54.324;18.558;2022-10-16T05:16:46;13.70;99.90
42913;DHT22;50720;54.324;18.558;2022-10-16T05:19:16;13.70;99.90
42913;DHT22;50720;54.324;18.558;2022-10-16T05:21:56;13.70;99.90
42913;DHT22;50720;54.324;18.558;2022-10-16T05:24:26;13.70;99.90
42913;DHT22;50720;54.324;18.558;2022-10-16T05:26:55;13.70;99.90
42913;DHT22;50720;54.324;18.558;2022-10-16T05:29:25;13.80;99.90
42913;DHT22;50720;54.324;18.558;2022-10-16T05:31:55;13.90;99.90
42913;DHT22;50720;54.324;18.558;2022-10-16T05:34:24;13.90;99.90
42913;DHT22;50720;54.324;18.558;2022-10-16T05:36:55;13.90;99.90
42913;DHT22;50720;54.324;18.558;2022-10-16T05:39:26;13.90;99.90
42913;DHT22;50720;54.324;18.558;2022-10-16T05:41:55;14.00;99.90
42913;DHT22;50720;54.324;18.558;2022-10-16T05:44:25;14.00;99.90
42913;DHT22;50720;54.324;18.558;2022-10-16T05:46:54;14.10;99.90
42913;DHT22;50720;54.324;18.558;2022-10-16T05:49:24;14.10;99.90
42913;DHT22;50720;54.324;18.558;2022-10-16T05:51:54;14.10;99.90
42913;DHT22;50720;54.324;18.558;2022-10-16T05:54:24;14.10;99.90
42913;DHT22;50720;54.324;18.558;2022-10-16T05:56:54;14.20;99.90
42913;DHT22;50720;54.324;18.558;2022-10-16T05:59:23;14.20;99.90
42913;DHT22;50720;54.324;18.558;2022-10-16T06:01:53;14.30;99.90
42913;DHT22;50720;54.324;18.558;2022-10-16T06:04:23;14.20;99.90
42913;DHT22;50720;54.324;18.558;2022-10-16T06:06:52;14.30;99.90
42913;DHT22;50720;54.324;18.558;2022-10-16T06:09:24;14.20;99.90
42913;DHT22;50720;54.324;18.558;2022-10-16T06:11:52;14.30;99.90
42913;DHT22;50720;54.324;18.558;2022-10-16T06:14:22;14.40;99.90
42913;DHT22;50720;54.324;18.558;2022-10-16T06:16:51;14.40;99.90
42913;DHT22;50720;54.324;18.558;2022-10-16T06:19:22;14.40;99.90
42913;DHT22;50720;54.324;18.558;2022-10-16T06:21:51;14.40;99.90
42913;DHT22;50720;54.324;18.558;2022-10-16T06:24:21;14.40;99.90
42913;DHT22;50720;54.324;18.558;2022-10-16T06:26:51;14.40;99.90
42913;DHT22;50720;54.324;18.558;2022-10-16T06:29:21;14.40;99.90
42913;DHT22;50720;54.324;18.558;2022-10-16T06:31:50;14.40;99.90
42913;DHT22;50720;54.324;18.558;2022-10-16T06:34:21;14.40;99.90
42913;DHT22;50720;54.324;18.558;2022-10-16T06:36:50;14.40;99.90
42913;DHT22;50720;54.324;18.558;2022-10-16T06:39:20;14.40;99.90
42913;DHT22;50720;54.324;18.558;2022-10-16T06:41:51;14.40;99.90
42913;DHT22;50720;54.324;18.558;2022-10-16T06:44:21;14.30;99.90
42913;DHT22;50720;54.324;18.558;2022-10-16T06:46:50;14.30;99.90
42913;DHT22;50720;54.324;18.558;2022-10-16T06:49:20;14.20;99.90
42913;DHT22;50720;54.324;18.558;2022-10-16T06:51:50;14.20;99.90
42913;DHT22;50720;54.324;18.558;2022-10-16T06:54:20;14.10;99.90
42913;DHT22;50720;54.324;18.558;2022-10-16T06:56:51;14.10;99.90
42913;DHT22;50720;54.324;18.558;2022-10-16T06:59:22;14.00;99.90
42913;DHT22;50720;54.324;18.558;2022-10-16T07:01:52;14.10;99.90
42913;DHT22;50720;54.324;18.558;2022-10-16T07:04:21;13.90;99.90
42913;DHT22;50720;54.324;18.558;2022-10-16T07:06:51;14.00;99.90
42913;DHT22;50720;54.324;18.558;2022-10-16T07:09:21;14.00;99.90
42913;DHT22;50720;54.324;18.558;2022-10-16T07:11:51;14.00;99.90
42913;DHT22;50720;54.324;18.558;2022-10-16T07:14:22;14.00;99.90
42913;DHT22;50720;54.324;18.558;2022-10-16T07:16:51;14.00;99.90
42913;DHT22;50720;54.324;18.558;2022-10-16T07:19:21;14.10;99.90
42913;DHT22;50720;54.324;18.558;2022-10-16T07:21:50;14.10;99.90
42913;DHT22;50720;54.324;18.558;2022-10-16T07:24:20;14.10;99.90
42913;DHT22;50720;54.324;18.558;2022-10-16T07:26:51;14.10;99.90
42913;DHT22;50720;54.324;18.558;2022-10-16T07:29:22;14.10;99.90
42913;DHT22;50720;54.324;18.558;2022-10-16T07:31:51;14.20;99.90
42913;DHT22;50720;54.324;18.558;2022-10-16T07:34:21;14.10;99.90
42913;DHT22;50720;54.324;18.558;2022-10-16T07:36:50;14.20;99.90
42913;DHT22;50720;54.324;18.558;2022-10-16T07:39:20;14.20;99.90
42913;DHT22;50720;54.324;18.558;2022-10-16T07:41:51;14.20;99.90
42913;DHT22;50720;54.324;18.558;2022-10-16T07:44:21;14.30;99.90
42913;DHT22;50720;54.324;18.558;2022-10-16T07:46:51;14.20;99.90
42913;DHT22;50720;54.324;18.558;2022-10-16T07:49:21;14.30;99.90
42913;DHT22;50720;54.324;18.558;2022-10-16T07:51:50;14.20;99.90
42913;DHT22;50720;54.324;18.558;2022-10-16T07:54:20;14.20;99.90
42913;DHT22;50720;54.324;18.558;2022-10-16T07:56:51;14.20;99.90
42913;DHT22;50720;54.324;18.558;2022-10-16T07:59:21;14.40;99.90
42913;DHT22;50720;54.324;18.558;2022-10-16T08:01:50;14.30;99.90
42913;DHT22;50720;54.324;18.558;2022-10-16T08:04:20;14.40;99.90
42913;DHT22;50720;54.324;18.558;2022-10-16T08:06:49;14.40;99.90
42913;DHT22;50720;54.324;18.558;2022-10-16T08:09:19;14.50;99.90
42913;DHT22;50720;54.324;18.558;2022-10-16T08:11:48;14.50;99.90
42913;DHT22;50720;54.324;18.558;2022-10-16T08:14:21;14.50;99.90
42913;DHT22;50720;54.324;18.558;2022-10-16T08:16:51;14.50;99.90
42913;DHT22;50720;54.324;18.558;2022-10-16T08:19:21;14.60;99.90
42913;DHT22;50720;54.324;18.558;2022-10-16T08:21:51;14.70;99.90
42913;DHT22;50720;54.324;18.558;2022-10-16T08:24:20;14.80;99.90
42913;DHT22;50720;54.324;18.558;2022-10-16T08:26:50;14.80;99.90
42913;DHT22;50720;54.324;18.558;2022-10-16T08:29:24;14.80;99.90
42913;DHT22;50720;54.324;18.558;2022-10-16T08:31:53;14.80;99.90
42913;DHT22;50720;54.324;18.558;2022-10-16T08:34:23;14.80;99.90
42913;DHT22;50720;54.324;18.558;2022-10-16T08:36:53;14.80;99.90
42913;DHT22;50720;54.324;18.558;2022-10-16T08:39:23;14.80;99.90
42913;DHT22;50720;54.324;18.558;2022-10-16T08:42:06;14.90;99.90
42913;DHT22;50720;54.324;18.558;2022-10-16T08:44:58;14.90;99.90
42913;DHT22;50720;54.324;18.558;2022-10-16T08:47:40;14.90;99.90
42913;DHT22;50720;54.324;18.558;2022-10-16T08:50:17;14.90;99.90
42913;DHT22;50720;54.324;18.558;2022-10-16T08:52:48;14.90;99.90
42913;DHT22;50720;54.324;18.558;2022-10-16T08:55:32;15.00;99.90
42913;DHT22;50720;54.324;18.558;2022-10-16T08:58:13;15.00;99.90
42913;DHT22;50720;54.324;18.558;2022-10-16T09:00:47;14.90;99.90
42913;DHT22;50720;54.324;18.558;2022-10-16T09:03:39;14.90;99.90
42913;DHT22;50720;54.324;18.558;2022-10-16T09:06:27;14.90;99.90
42913;DHT22;50720;54.324;18.558;2022-10-16T09:09:10;14.90;99.90
42913;DHT22;50720;54.324;18.558;2022-10-16T09:11:47;15.00;99.90
42913;DHT22;50720;54.324;18.558;2022-10-16T09:14:31;15.10;99.90
42913;DHT22;50720;54.324;18.558;2022-10-16T09:17:18;15.10;99.90
42913;DHT22;50720;54.324;18.558;2022-10-16T09:19:54;15.10;99.90
42913;DHT22;50720;54.324;18.558;2022-10-16T09:22:27;15.10;99.90
42913;DHT22;50720;54.324;18.558;2022-10-16T09:25:00;15.20;99.90
42913;DHT22;50720;54.324;18.558;2022-10-16T09:27:31;15.10;99.90
42913;DHT22;50720;54.324;18.558;2022-10-16T09:30:00;15.20;99.90
42913;DHT22;50720;54.324;18.558;2022-10-16T09:32:32;15.20;99.90
42913;DHT22;50720;54.324;18.558;2022-10-16T09:35:02;15.20;99.90
42913;DHT22;50720;54.324;18.558;2022-10-16T09:37:31;15.30;99.90
42913;DHT22;50720;54.324;18.558;2022-10-16T09:40:01;15.40;99.90
42913;DHT22;50720;54.324;18.558;2022-10-16T09:42:35;15.40;99.90
42913;DHT22;50720;54.324;18.558;2022-10-16T09:45:18;15.40;99.90
42913;DHT22;50720;54.324;18.558;2022-10-16T09:47:51;15.40;99.90
42913;DHT22;50720;54.324;18.558;2022-10-16T09:50:26;15.40;99.90
42913;DHT22;50720;54.324;18.558;2022-10-16T09:53:10;15.40;99.90
42913;DHT22;50720;54.324;18.558;2022-10-16T09:55:48;15.40;99.90
42913;DHT22;50720;54.324;18.558;2022-10-16T09:58:21;15.40;99.90
42913;DHT22;50720;54.324;18.558;2022-10-16T10:00:52;15.40;99.90
42913;DHT22;50720;54.324;18.558;2022-10-16T10:03:35;15.30;99.90
42913;DHT22;50720;54.324;18.558;2022-10-16T10:06:14;15.40;99.90
42913;DHT22;50720;54.324;18.558;2022-10-16T10:09:04;15.40;99.90
42913;DHT22;50720;54.324;18.558;2022-10-16T10:11:52;15.40;99.90
42913;DHT22;50720;54.324;18.558;2022-10-16T10:14:25;15.50;99.90
42913;DHT22;50720;54.324;18.558;2022-10-16T10:17:12;15.40;99.90
42913;DHT22;50720;54.324;18.558;2022-10-16T10:19:50;15.40;99.90
42913;DHT22;50720;54.324;18.558;2022-10-16T10:22:27;15.50;99.90
42913;DHT22;50720;54.324;18.558;2022-10-16T10:25:19;15.50;99.90
42913;DHT22;50720;54.324;18.558;2022-10-16T10:28:08;15.50;99.90
42913;DHT22;50720;54.324;18.558;2022-10-16T10:30:48;15.50;99.90
42913;DHT22;50720;54.324;18.558;2022-10-16T10:33:27;15.50;99.90
42913;DHT22;50720;54.324;18.558;2022-10-16T10:36:07;15.60;99.90
42913;DHT22;50720;54.324;18.558;2022-10-16T10:38:43;15.60;99.90
42913;DHT22;50720;54.324;18.558;2022-10-16T10:41:53;15.70;99.90
42913;DHT22;50720;54.324;18.558;2022-10-16T10:44:35;15.80;99.90
42913;DHT22;50720;54.324;18.558;2022-10-16T10:47:11;15.90;99.90
42913;DHT22;50720;54.324;18.558;2022-10-16T10:49:50;16.00;99.90
42913;DHT22;50720;54.324;18.558;2022-10-16T10:52:43;16.00;99.90
42913;DHT22;50720;54.324;18.558;2022-10-16T10:55:23;16.00;99.90
42913;DHT22;50720;54.324;18.558;2022-10-16T11:01:06;16.10;99.90
42913;DHT22;50720;54.324;18.558;2022-10-16T11:04:02;16.10;99.90
42913;DHT22;50720;54.324;18.558;2022-10-16T11:06:40;16.20;99.90
42913;DHT22;50720;54.324;18.558;2022-10-16T11:09:18;16.20;99.90
42913;DHT22;50720;54.324;18.558;2022-10-16T11:11:52;16.30;99.90
42913;DHT22;50720;54.324;18.558;2022-10-16T11:14:30;16.40;99.90
42913;DHT22;50720;54.324;18.558;2022-10-16T11:17:08;16.50;99.90
42913;DHT22;50720;54.324;18.558;2022-10-16T11:19:43;16.70;99.90
42913;DHT22;50720;54.324;18.558;2022-10-16T11:22:18;16.90;99.90
42913;DHT22;50720;54.324;18.558;2022-10-16T11:24:54;17.00;99.90
42913;DHT22;50720;54.324;18.558;2022-10-16T11:27:35;17.00;99.90
42913;DHT22;50720;54.324;18.558;2022-10-16T11:30:13;17.00;99.90
42913;DHT22;50720;54.324;18.558;2022-10-16T11:32:52;17.10;99.90
42913;DHT22;50720;54.324;18.558;2022-10-16T11:35:28;17.10;99.90
42913;DHT22;50720;54.324;18.558;2022-10-16T11:38:02;17.20;99.90
42913;DHT22;50720;54.324;18.558;2022-10-16T11:40:38;17.20;99.90
42913;DHT22;50720;54.324;18.558;2022-10-16T11:43:14;17.10;99.90
42913;DHT22;50720;54.324;18.558;2022-10-16T11:45:48;17.10;99.90
42913;DHT22;50720;54.324;18.558;2022-10-16T11:48:24;17.10;99.90
42913;DHT22;50720;54.324;18.558;2022-10-16T11:51:00;17.10;99.90
42913;DHT22;50720;54.324;18.558;2022-10-16T11:53:47;17.10;99.90
42913;DHT22;50720;54.324;18.558;2022-10-16T11:56:20;17.10;99.90
42913;DHT22;50720;54.324;18.558;2022-10-16T11:58:55;17.10;99.90
42913;DHT22;50720;54.324;18.558;2022-10-16T12:01:31;17.10;99.90
42913;DHT22;50720;54.324;18.558;2022-10-16T12:04:14;17.10;99.90
42913;DHT22;50720;54.324;18.558;2022-10-16T12:06:49;17.30;99.90
42913;DHT22;50720;54.324;18.558;2022-10-16T12:09:22;17.60;99.90
42913;DHT22;50720;54.324;18.558;2022-10-16T12:11:55;17.80;99.90
42913;DHT22;50720;54.324;18.558;2022-10-16T12:14:37;18.00;99.90
42913;DHT22;50720;54.324;18.558;2022-10-16T12:17:35;18.10;99.90
42913;DHT22;50720;54.324;18.558;2022-10-16T12:20:21;18.50;99.90
42913;DHT22;50720;54.324;18.558;2022-10-16T12:22:53;18.60;99.90
42913;DHT22;50720;54.324;18.558;2022-10-16T12:25:26;18.60;99.90
42913;DHT22;50720;54.324;18.558;2022-10-16T12:28:00;18.60;99.90
42913;DHT22;50720;54.324;18.558;2022-10-16T12:30:32;18.90;99.90
42913;DHT22;50720;54.324;18.558;2022-10-16T12:33:04;19.50;99.90
42913;DHT22;50720;54.324;18.558;2022-10-16T12:35:42;20.30;99.90
42913;DHT22;50720;54.324;18.558;2022-10-16T12:38:17;20.80;99.90
42913;DHT22;50720;54.324;18.558;2022-10-16T12:40:56;20.60;99.90
42913;DHT22;50720;54.324;18.558;2022-10-16T12:43:37;20.30;99.90
42913;DHT22;50720;54.324;18.558;2022-10-16T12:46:23;20.30;99.90
42913;DHT22;50720;54.324;18.558;2022-10-16T12:48:53;20.40;99.90
42913;DHT22;50720;54.324;18.558;2022-10-16T12:51:36;20.50;99.90
42913;DHT22;50720;54.324;18.558;2022-10-16T12:54:14;20.80;99.90
42913;DHT22;50720;54.324;18.558;2022-10-16T12:56:51;21.00;99.90
42913;DHT22;50720;54.324;18.558;2022-10-16T12:59:34;21.20;99.90
42913;DHT22;50720;54.324;18.558;2022-10-16T13:02:26;21.10;99.90
42913;DHT22;50720;54.324;18.558;2022-10-16T13:05:19;20.90;99.90
42913;DHT22;50720;54.324;18.558;2022-10-16T13:07:59;21.20;99.90
42913;DHT22;50720;54.324;18.558;2022-10-16T13:10:36;21.50;99.90
42913;DHT22;50720;54.324;18.558;2022-10-16T13:13:23;22.00;99.90
42913;DHT22;50720;54.324;18.558;2022-10-16T13:16:08;22.30;99.90
42913;DHT22;50720;54.324;18.558;2022-10-16T13:18:50;22.10;99.90
42913;DHT22;50720;54.324;18.558;2022-10-16T13:21:35;21.50;99.90
42913;DHT22;50720;54.324;18.558;2022-10-16T13:24:16;21.10;99.90
42913;DHT22;50720;54.324;18.558;2022-10-16T13:26:49;20.70;99.90
42913;DHT22;50720;54.324;18.558;2022-10-16T13:29:22;20.30;99.90
42913;DHT22;50720;54.324;18.558;2022-10-16T13:31:53;20.10;99.90
42913;DHT22;50720;54.324;18.558;2022-10-16T13:34:23;19.90;99.90
42913;DHT22;50720;54.324;18.558;2022-10-16T13:36:53;19.50;99.90
42913;DHT22;50720;54.324;18.558;2022-10-16T13:39:24;19.20;99.90
42913;DHT22;50720;54.324;18.558;2022-10-16T13:42:24;18.90;99.90
42913;DHT22;50720;54.324;18.558;2022-10-16T13:44:56;18.80;99.90
42913;DHT22;50720;54.324;18.558;2022-10-16T13:47:28;18.60;99.90
42913;DHT22;50720;54.324;18.558;2022-10-16T13:50:03;18.50;99.90
42913;DHT22;50720;54.324;18.558;2022-10-16T13:52:34;18.40;99.90
42913;DHT22;50720;54.324;18.558;2022-10-16T13:55:04;18.40;99.90
42913;DHT22;50720;54.324;18.558;2022-10-16T13:57:34;18.30;99.90
42913;DHT22;50720;54.324;18.558;2022-10-16T14:00:18;18.30;99.90
42913;DHT22;50720;54.324;18.558;2022-10-16T14:02:55;18.20;99.90
42913;DHT22;50720;54.324;18.558;2022-10-16T14:05:26;18.20;99.90
42913;DHT22;50720;54.324;18.558;2022-10-16T14:07:56;18.10;99.90
42913;DHT22;50720;54.324;18.558;2022-10-16T14:10:28;18.10;99.90
42913;DHT22;50720;54.324;18.558;2022-10-16T14:13:02;18.00;99.90
42913;DHT22;50720;54.324;18.558;2022-10-16T14:15:33;18.00;99.90
42913;DHT22;50720;54.324;18.558;2022-10-16T14:18:05;17.90;99.90
42913;DHT22;50720;54.324;18.558;2022-10-16T14:20:35;18.00;99.90
42913;DHT22;50720;54.324;18.558;2022-10-16T14:23:19;18.00;99.90
42913;DHT22;50720;54.324;18.558;2022-10-16T14:25:49;18.00;99.90
42913;DHT22;50720;54.324;18.558;2022-10-16T14:28:21;18.00;99.90
42913;DHT22;50720;54.324;18.558;2022-10-16T14:30:52;18.10;99.90
42913;DHT22;50720;54.324;18.558;2022-10-16T14:33:25;18.00;99.90
42913;DHT22;50720;54.324;18.558;2022-10-16T14:36:03;18.20;99.90
42913;DHT22;50720;54.324;18.558;2022-10-16T14:38:34;18.30;99.90
42913;DHT22;50720;54.324;18.558;2022-10-16T14:41:05;18.30;99.90
42913;DHT22;50720;54.324;18.558;2022-10-16T14:43:36;18.40;99.90
42913;DHT22;50720;54.324;18.558;2022-10-16T14:46:11;18.50;99.90
42913;DHT22;50720;54.324;18.558;2022-10-16T14:48:45;18.40;99.90
42913;DHT22;50720;54.324;18.558;2022-10-16T14:51:16;18.30;99.90
42913;DHT22;50720;54.324;18.558;2022-10-16T14:53:46;18.20;99.90
42913;DHT22;50720;54.324;18.558;2022-10-16T14:56:18;18.20;99.90
42913;DHT22;50720;54.324;18.558;2022-10-16T14:58:50;18.20;99.90
42913;DHT22;50720;54.324;18.558;2022-10-16T15:01:20;18.10;99.90
42913;DHT22;50720;54.324;18.558;2022-10-16T15:03:52;18.00;99.90
42913;DHT22;50720;54.324;18.558;2022-10-16T15:06:23;17.90;99.90
42913;DHT22;50720;54.324;18.558;2022-10-16T15:08:52;17.90;99.90
42913;DHT22;50720;54.324;18.558;2022-10-16T15:11:22;17.80;99.90
42913;DHT22;50720;54.324;18.558;2022-10-16T15:13:52;17.70;99.90
42913;DHT22;50720;54.324;18.558;2022-10-16T15:16:21;17.60;99.90
42913;DHT22;50720;54.324;18.558;2022-10-16T15:18:52;17.50;99.90
42913;DHT22;50720;54.324;18.558;2022-10-16T15:21:25;17.40;99.90
42913;DHT22;50720;54.324;18.558;2022-10-16T15:23:56;17.20;99.90
42913;DHT22;50720;54.324;18.558;2022-10-16T15:26:27;17.10;99.90
42913;DHT22;50720;54.324;18.558;2022-10-16T15:28:57;17.00;99.90
42913;DHT22;50720;54.324;18.558;2022-10-16T15:31:27;17.00;99.90
42913;DHT22;50720;54.324;18.558;2022-10-16T15:33:59;16.90;99.90
42913;DHT22;50720;54.324;18.558;2022-10-16T15:36:33;16.90;99.90
42913;DHT22;50720;54.324;18.558;2022-10-16T15:39:06;16.70;99.90
42913;DHT22;50720;54.324;18.558;2022-10-16T15:41:41;16.60;99.90
42913;DHT22;50720;54.324;18.558;2022-10-16T15:44:13;16.50;99.90
42913;DHT22;50720;54.324;18.558;2022-10-16T15:46:43;16.40;99.90
42913;DHT22;50720;54.324;18.558;2022-10-16T15:49:14;16.30;99.90
42913;DHT22;50720;54.324;18.558;2022-10-16T15:51:44;16.30;99.90
42913;DHT22;50720;54.324;18.558;2022-10-16T15:54:15;16.20;99.90
42913;DHT22;50720;54.324;18.558;2022-10-16T15:56:44;16.10;99.90